Time;durP1;ratioP1;P1;durP2;ratioP2;P2;SDS_P1;SDS_P2;PMS_P1;PMS_P2;Temp;Humidity;BMP_temperature;BMP_pressure;BME280_temperature;BME280_humidity;BME280_pressure;Samples;Min_cycle;Max_cycle;Signal;HPM_P1;HPM_P2
2020/12/25 00:01:25;;;;;;;6.03;3.00;;;;;;;;;;5036708;28;21039;-79
2020/12/25 00:03:52;;;;;;;5.80;2.90;;;;;;;;;;5009942;28;20280;-79
2020/12/25 00:06:18;;;;;;;8.87;3.77;;;;;;;;;;5011058;28;20328;-79
2020/12/25 00:08:45;;;;;;;7.10;3.70;;;;;;;;;;5009570;28;20257;-78
2020/12/25 00:11:11;;;;;;;6.30;3.57;;;;;;;;;;5009891;28;20829;-79
2020/12/25 00:13:37;;;;;;;8.67;4.17;;;;;;;;;;5011890;28;20268;-78
2020/12/25 00:16:03;;;;;;;9.07;3.77;;;;;;;;;;5010894;28;20296;-78
2020/12/25 00:18:29;;;;;;;9.30;4.77;;;;;;;;;;5003345;28;20288;-79
2020/12/25 00:20:55;;;;;;;8.67;3.97;;;;;;;;;;5010228;28;20261;-79
2020/12/25 00:23:21;;;;;;;5.80;3.03;;;;;;;;;;5010213;28;20501;-80
2020/12/25 00:25:47;;;;;;;4.73;2.20;;;;;;;;;;5010804;28;20339;-80
2020/12/25 00:28:13;;;;;;;5.67;2.40;;;;;;;;;;5007764;28;20281;-80
2020/12/25 00:30:43;;;;;;;3.67;2.00;;;;;;;;;;5024631;28;20276;-81
2020/12/25 00:33:09;;;;;;;6.23;2.27;;;;;;;;;;5026447;28;20278;-77
2020/12/25 00:35:35;;;;;;;4.97;2.07;;;;;;;;;;5002909;28;20324;-80
2020/12/25 00:38:02;;;;;;;4.30;2.20;;;;;;;;;;5011580;28;20269;-80
2020/12/25 00:40:28;;;;;;;5.30;2.23;;;;;;;;;;5011333;28;20755;-81
2020/12/25 00:42:54;;;;;;;4.13;1.97;;;;;;;;;;5012261;28;20264;-81
2020/12/25 00:45:23;;;;;;;7.07;2.40;;;;;;;;;;5009304;28;20277;-80
2020/12/25 00:47:49;;;;;;;4.67;1.70;;;;;;;;;;5012023;28;20269;-81
2020/12/25 00:50:15;;;;;;;4.83;2.10;;;;;;;;;;5014457;28;20269;-82
2020/12/25 00:52:41;;;;;;;2.90;1.50;;;;;;;;;;5013047;28;20304;-81
2020/12/25 00:55:08;;;;;;;4.07;1.80;;;;;;;;;;5025670;28;20335;-83
2020/12/25 00:57:38;;;;;;;4.30;2.00;;;;;;;;;;5008733;28;20446;-82
2020/12/25 01:00:05;;;;;;;3.50;1.40;;;;;;;;;;5010503;28;20552;-81
2020/12/25 01:02:31;;;;;;;2.97;1.30;;;;;;;;;;5026155;28;20333;-82
2020/12/25 01:04:57;;;;;;;3.70;1.80;;;;;;;;;;5026661;28;20262;-83
2020/12/25 01:07:23;;;;;;;2.13;1.20;;;;;;;;;;5025904;28;20257;-82
2020/12/25 01:09:49;;;;;;;4.47;2.10;;;;;;;;;;5027191;28;20846;-84
2020/12/25 01:12:16;;;;;;;4.23;1.93;;;;;;;;;;5023950;28;20324;-82
2020/12/25 01:14:42;;;;;;;3.67;1.77;;;;;;;;;;5024925;28;20368;-83
2020/12/25 01:17:08;;;;;;;4.87;1.97;;;;;;;;;;5027479;28;20371;-82
2020/12/25 01:19:37;;;;;;;6.03;2.60;;;;;;;;;;5012605;28;20597;-82
2020/12/25 01:22:03;;;;;;;4.00;1.73;;;;;;;;;;5013611;28;20331;-82
2020/12/25 01:24:29;;;;;;;6.93;2.77;;;;;;;;;;5004060;28;20355;-82
2020/12/25 01:26:55;;;;;;;5.93;2.40;;;;;;;;;;5009117;28;20775;-82
2020/12/25 01:29:22;;;;;;;4.73;2.07;;;;;;;;;;5011914;28;20276;-82
2020/12/25 01:31:48;;;;;;;5.60;2.07;;;;;;;;;;5013022;28;20327;-82
2020/12/25 01:34:14;;;;;;;4.83;2.20;;;;;;;;;;5011257;28;20297;-82
2020/12/25 01:36:40;;;;;;;4.83;1.97;;;;;;;;;;5007234;28;20388;-82
2020/12/25 01:39:07;;;;;;;6.63;2.43;;;;;;;;;;5024501;28;20269;-82
2020/12/25 01:41:33;;;;;;;4.83;2.30;;;;;;;;;;5008614;28;20277;-82
2020/12/25 01:43:59;;;;;;;4.40;2.20;;;;;;;;;;5040076;28;20273;-81
2020/12/25 01:46:25;;;;;;;4.97;2.60;;;;;;;;;;5010479;28;20261;-82
2020/12/25 01:48:51;;;;;;;7.43;2.90;;;;;;;;;;5012315;28;20312;-82
2020/12/25 01:51:19;;;;;;;7.03;2.47;;;;;;;;;;5011853;28;20273;-83
2020/12/25 01:53:45;;;;;;;7.37;3.00;;;;;;;;;;5011167;28;20684;-84
2020/12/25 01:56:12;;;;;;;6.20;3.20;;;;;;;;;;5011328;28;20288;-83
2020/12/25 01:58:39;;;;;;;5.10;2.23;;;;;;;;;;5009973;28;20308;-82
2020/12/25 02:01:05;;;;;;;7.10;3.23;;;;;;;;;;5009743;28;20293;-82
2020/12/25 02:03:31;;;;;;;6.13;3.27;;;;;;;;;;5011208;28;20265;-82
2020/12/25 02:05:57;;;;;;;5.30;2.70;;;;;;;;;;4992574;28;20757;-82
2020/12/25 02:08:23;;;;;;;7.27;2.80;;;;;;;;;;4994153;28;20288;-82
2020/12/25 02:10:49;;;;;;;6.37;3.20;;;;;;;;;;5008103;28;20376;-82
2020/12/25 02:13:16;;;;;;;8.60;3.23;;;;;;;;;;5007763;28;20676;-84
2020/12/25 02:15:42;;;;;;;6.90;3.40;;;;;;;;;;5007796;28;20292;-82
2020/12/25 02:18:08;;;;;;;5.13;2.90;;;;;;;;;;5007810;28;20270;-83
2020/12/25 02:20:34;;;;;;;6.50;3.57;;;;;;;;;;5023981;28;20578;-83
2020/12/25 02:23:00;;;;;;;5.53;2.83;;;;;;;;;;5025226;28;20254;-82
2020/12/25 02:25:26;;;;;;;7.30;3.30;;;;;;;;;;5042666;28;20331;-82
2020/12/25 02:27:52;;;;;;;8.77;3.57;;;;;;;;;;5012163;28;20352;-82
2020/12/25 02:30:19;;;;;;;6.40;3.07;;;;;;;;;;5011369;28;20352;-82
2020/12/25 02:32:45;;;;;;;6.33;3.17;;;;;;;;;;5010773;28;20268;-84
2020/12/25 02:35:11;;;;;;;7.23;3.10;;;;;;;;;;5003611;28;20352;-83
2020/12/25 02:37:37;;;;;;;6.13;3.63;;;;;;;;;;4990812;28;20305;-84
2020/12/25 02:40:04;;;;;;;5.83;2.90;;;;;;;;;;4992540;28;20324;-83
2020/12/25 02:42:30;;;;;;;5.17;2.60;;;;;;;;;;5007932;28;20332;-83
2020/12/25 02:44:56;;;;;;;6.07;2.40;;;;;;;;;;4992315;28;20491;-83
2020/12/25 02:47:22;;;;;;;5.60;2.60;;;;;;;;;;5005906;28;20633;-83
2020/12/25 02:49:48;;;;;;;4.30;2.30;;;;;;;;;;5006579;28;20262;-83
2020/12/25 02:52:14;;;;;;;7.63;4.00;;;;;;;;;;5006936;28;20324;-82
2020/12/25 02:54:40;;;;;;;7.43;3.93;;;;;;;;;;5003117;28;20371;-83
2020/12/25 02:57:06;;;;;;;8.13;4.00;;;;;;;;;;5010285;28;20689;-83
2020/12/25 02:59:32;;;;;;;8.47;4.47;;;;;;;;;;5009665;28;20272;-83
2020/12/25 03:01:58;;;;;;;12.00;5.17;;;;;;;;;;4994479;28;20273;-83
2020/12/25 03:04:25;;;;;;;10.60;4.50;;;;;;;;;;4994094;28;20273;-83
2020/12/25 03:06:51;;;;;;;10.13;4.60;;;;;;;;;;4996015;28;20756;-83
2020/12/25 03:09:17;;;;;;;10.93;5.03;;;;;;;;;;5015276;28;20360;-82
2020/12/25 03:11:43;;;;;;;11.33;4.90;;;;;;;;;;5010486;28;20273;-84
2020/12/25 03:14:09;;;;;;;10.03;5.17;;;;;;;;;;5026735;28;20649;-83
2020/12/25 03:16:35;;;;;;;8.70;4.67;;;;;;;;;;5042417;28;20356;-84
2020/12/25 03:19:01;;;;;;;6.63;3.73;;;;;;;;;;5030317;28;20257;-83
2020/12/25 03:21:27;;;;;;;7.20;3.90;;;;;;;;;;5027822;28;20312;-83
2020/12/25 03:23:53;;;;;;;7.50;3.77;;;;;;;;;;5004343;28;20272;-83
2020/12/25 03:26:19;;;;;;;6.47;3.37;;;;;;;;;;5031366;28;20280;-83
2020/12/25 03:28:45;;;;;;;9.47;3.87;;;;;;;;;;5031864;28;20407;-83
2020/12/25 03:31:12;;;;;;;8.23;3.20;;;;;;;;;;5031734;28;20260;-83
2020/12/25 03:33:38;;;;;;;7.93;3.03;;;;;;;;;;5000722;28;20297;-83
2020/12/25 03:36:09;;;;;;;5.73;3.47;;;;;;;;;;5014384;28;20319;-84
2020/12/25 03:38:35;;;;;;;6.10;2.93;;;;;;;;;;5034605;28;21027;-83
2020/12/25 03:41:02;;;;;;;3.77;1.93;;;;;;;;;;5033146;28;20300;-83
2020/12/25 03:43:28;;;;;;;5.80;2.10;;;;;;;;;;4995888;28;20780;-83
2020/12/25 03:45:54;;;;;;;4.70;2.50;;;;;;;;;;4991904;28;20346;-82
2020/12/25 03:48:21;;;;;;;6.00;2.50;;;;;;;;;;5010311;28;20273;-83
2020/12/25 03:50:47;;;;;;;4.57;2.40;;;;;;;;;;4994757;28;20847;-83
2020/12/25 03:53:13;;;;;;;5.40;2.70;;;;;;;;;;5012340;28;20268;-83
2020/12/25 03:55:39;;;;;;;4.53;2.30;;;;;;;;;;5013623;28;20288;-83
2020/12/25 03:58:05;;;;;;;4.00;1.83;;;;;;;;;;5014157;28;20289;-83
2020/12/25 04:00:31;;;;;;;5.23;2.30;;;;;;;;;;5013124;28;20273;-83
2020/12/25 04:02:57;;;;;;;4.30;2.03;;;;;;;;;;5012384;28;20268;-84
2020/12/25 04:05:23;;;;;;;3.97;1.90;;;;;;;;;;5012520;28;20284;-83
2020/12/25 04:07:49;;;;;;;4.20;2.03;;;;;;;;;;5011369;28;20296;-83
2020/12/25 04:10:15;;;;;;;5.43;2.30;;;;;;;;;;4998467;28;20343;-84
2020/12/25 04:12:41;;;;;;;6.00;1.93;;;;;;;;;;5004811;28;20269;-83
2020/12/25 04:15:07;;;;;;;5.50;2.77;;;;;;;;;;5015496;28;20300;-86
2020/12/25 04:17:33;;;;;;;4.77;2.33;;;;;;;;;;5014235;28;20271;-84
2020/12/25 04:20:00;;;;;;;5.27;2.60;;;;;;;;;;4996080;28;20269;-83
2020/12/25 04:22:26;;;;;;;5.37;2.47;;;;;;;;;;4996117;28;20753;-83
2020/12/25 04:24:52;;;;;;;5.47;2.63;;;;;;;;;;5009652;28;20415;-83
2020/12/25 04:27:18;;;;;;;4.97;2.40;;;;;;;;;;5007180;28;20273;-84
2020/12/25 04:29:44;;;;;;;5.10;2.57;;;;;;;;;;4996660;28;20301;-83
2020/12/25 04:32:10;;;;;;;6.20;3.10;;;;;;;;;;4995522;28;20265;-84
2020/12/25 04:34:36;;;;;;;5.57;2.73;;;;;;;;;;4995052;28;20384;-83
2020/12/25 04:37:03;;;;;;;5.73;3.20;;;;;;;;;;5013338;28;20253;-83
2020/12/25 04:39:29;;;;;;;5.23;2.63;;;;;;;;;;5013376;28;20326;-83
2020/12/25 04:41:56;;;;;;;5.07;2.40;;;;;;;;;;5013570;28;20250;-83
2020/12/25 04:44:22;;;;;;;5.57;2.40;;;;;;;;;;5013504;28;20323;-83
2020/12/25 04:46:51;;;;;;;5.37;2.23;;;;;;;;;;5011982;28;20272;-83
2020/12/25 04:49:18;;;;;;;5.43;2.70;;;;;;;;;;5013683;28;20641;-84
2020/12/25 04:51:44;;;;;;;7.63;3.43;;;;;;;;;;5013971;28;20261;-84
2020/12/25 04:54:10;;;;;;;9.47;3.20;;;;;;;;;;5020951;28;20371;-83
2020/12/25 04:56:36;;;;;;;7.57;3.90;;;;;;;;;;5033400;28;20456;-83
2020/12/25 04:59:02;;;;;;;6.23;3.67;;;;;;;;;;5033581;28;20306;-83
2020/12/25 05:01:28;;;;;;;6.90;3.90;;;;;;;;;;5004071;28;20277;-83
2020/12/25 05:03:54;;;;;;;7.27;4.10;;;;;;;;;;4993985;28;20656;-84
2020/12/25 05:06:21;;;;;;;9.37;4.13;;;;;;;;;;4993197;28;20355;-84
2020/12/25 05:08:48;;;;;;;8.80;4.83;;;;;;;;;;4993991;28;20277;-84
2020/12/25 05:11:15;;;;;;;7.87;4.60;;;;;;;;;;5010556;28;20312;-83
2020/12/25 05:13:48;;;;;;;7.23;4.10;;;;;;;;;;5010985;28;20348;-83
2020/12/25 05:16:15;;;;;;;7.40;4.20;;;;;;;;;;5010078;28;20321;-83
2020/12/25 05:18:43;;;;;;;7.43;4.07;;;;;;;;;;4993832;28;20026;-83
2020/12/25 05:21:10;;;;;;;6.67;3.67;;;;;;;;;;4993558;28;20340;-83
2020/12/25 05:23:41;;;;;;;8.43;4.90;;;;;;;;;;5002104;28;20279;-84
2020/12/25 05:26:08;;;;;;;8.13;4.23;;;;;;;;;;5009146;28;20291;-83
2020/12/25 05:28:39;;;;;;;8.00;4.33;;;;;;;;;;5014087;28;20675;-84
2020/12/25 05:31:05;;;;;;;8.57;4.07;;;;;;;;;;5014583;28;20348;-83
2020/12/25 05:33:32;;;;;;;7.57;4.23;;;;;;;;;;5014397;28;20280;-83
2020/12/25 05:35:58;;;;;;;7.77;4.23;;;;;;;;;;5022253;28;20689;-85
2020/12/25 05:38:28;;;;;;;7.97;3.93;;;;;;;;;;5013938;28;20273;-84
2020/12/25 05:40:54;;;;;;;7.80;4.30;;;;;;;;;;5013627;28;20640;-83
2020/12/25 05:43:20;;;;;;;9.07;4.83;;;;;;;;;;5012937;28;20275;-84
2020/12/25 05:45:47;;;;;;;7.13;4.03;;;;;;;;;;5026790;28;20752;-85
2020/12/25 05:48:13;;;;;;;8.10;4.77;;;;;;;;;;5025882;28;20270;-83
2020/12/25 05:50:40;;;;;;;8.10;4.37;;;;;;;;;;5026045;28;20281;-84
2020/12/25 05:53:06;;;;;;;8.97;4.67;;;;;;;;;;5043889;28;20371;-84
2020/12/25 05:55:32;;;;;;;7.87;4.17;;;;;;;;;;5013027;28;20663;-84
2020/12/25 05:58:00;;;;;;;8.30;4.63;;;;;;;;;;5016999;28;20296;-83
2020/12/25 06:00:27;;;;;;;7.83;3.67;;;;;;;;;;5011518;28;20273;-83
2020/12/25 06:02:54;;;;;;;8.23;4.57;;;;;;;;;;5026234;28;20265;-83
2020/12/25 06:05:20;;;;;;;8.07;4.30;;;;;;;;;;5025901;28;20719;-84
2020/12/25 06:07:50;;;;;;;9.97;5.00;;;;;;;;;;5026980;28;20296;-83
2020/12/25 06:10:17;;;;;;;9.20;5.20;;;;;;;;;;5012556;28;20329;-84
2020/12/25 06:12:43;;;;;;;8.67;4.17;;;;;;;;;;5013852;28;20364;-83
2020/12/25 06:15:21;;;;;;;9.13;4.40;;;;;;;;;;5013109;28;20296;-84
2020/12/25 06:17:57;;;;;;;8.70;4.57;;;;;;;;;;5012983;28;20349;-84
2020/12/25 06:20:25;;;;;;;9.93;4.93;;;;;;;;;;5013946;28;20257;-83
2020/12/25 06:22:52;;;;;;;8.77;5.23;;;;;;;;;;5011769;28;20265;-83
2020/12/25 06:25:21;;;;;;;9.70;5.30;;;;;;;;;;5010749;28;20257;-83
2020/12/25 06:27:49;;;;;;;9.27;5.20;;;;;;;;;;5013148;28;20280;-84
2020/12/25 06:30:23;;;;;;;9.90;5.27;;;;;;;;;;5013363;28;20267;-83
2020/12/25 06:32:49;;;;;;;9.83;5.47;;;;;;;;;;5009757;28;20304;-83
2020/12/25 06:35:15;;;;;;;8.87;4.47;;;;;;;;;;5009239;28;20309;-83
2020/12/25 06:37:42;;;;;;;9.33;5.10;;;;;;;;;;5008244;28;20274;-83
2020/12/25 06:40:08;;;;;;;11.50;5.73;;;;;;;;;;5026552;28;20297;-83
2020/12/25 06:42:35;;;;;;;10.90;5.53;;;;;;;;;;5012208;28;20283;-83
2020/12/25 06:45:03;;;;;;;10.17;5.40;;;;;;;;;;5011526;28;20351;-83
2020/12/25 06:47:30;;;;;;;9.57;5.03;;;;;;;;;;5011715;28;20741;-83
2020/12/25 06:49:57;;;;;;;11.70;5.50;;;;;;;;;;5010361;28;20308;-83
2020/12/25 06:52:30;;;;;;;10.57;5.27;;;;;;;;;;5009086;28;20327;-83
2020/12/25 06:54:57;;;;;;;9.55;5.60;;;;;;;;;;5040358;28;20368;-83
2020/12/25 06:57:26;;;;;;;9.07;5.23;;;;;;;;;;5031243;28;20401;-84
2020/12/25 06:59:52;;;;;;;8.87;5.13;;;;;;;;;;5012028;28;20268;-83
2020/12/25 07:02:19;;;;;;;10.70;5.27;;;;;;;;;;5008725;28;20372;-83
2020/12/25 07:04:48;;;;;;;9.43;5.50;;;;;;;;;;5024794;28;20266;-82
2020/12/25 07:07:14;;;;;;;10.03;5.87;;;;;;;;;;5008477;28;20312;-83
2020/12/25 07:09:45;;;;;;;10.93;6.00;;;;;;;;;;5023551;28;20301;-85
2020/12/25 07:12:22;;;;;;;9.10;5.60;;;;;;;;;;5024055;28;20313;-83
2020/12/25 07:14:48;;;;;;;10.37;5.83;;;;;;;;;;5023613;28;20293;-83
2020/12/25 07:17:18;;;;;;;9.53;5.50;;;;;;;;;;5023345;28;20757;-82
2020/12/25 07:19:44;;;;;;;10.37;6.00;;;;;;;;;;5039257;28;20371;-82
2020/12/25 07:22:10;;;;;;;15.13;6.57;;;;;;;;;;5009538;28;20261;-83
2020/12/25 07:24:43;;;;;;;12.90;6.67;;;;;;;;;;5009040;28;20281;-82
2020/12/25 07:27:10;;;;;;;11.45;6.80;;;;;;;;;;5013182;28;20269;-84
2020/12/25 07:29:36;;;;;;;13.83;7.23;;;;;;;;;;5022239;28;20026;-82
2020/12/25 07:32:03;;;;;;;13.83;8.17;;;;;;;;;;5049707;28;20361;-82
2020/12/25 07:34:43;;;;;;;12.37;7.10;;;;;;;;;;5020672;28;20309;-82
2020/12/25 07:37:12;;;;;;;12.73;6.73;;;;;;;;;;5026480;28;20269;-83
2020/12/25 07:39:38;;;;;;;12.60;7.23;;;;;;;;;;5015564;28;20381;-82
2020/12/25 07:42:07;;;;;;;11.73;7.17;;;;;;;;;;5022068;28;20843;-83
2020/12/25 07:44:33;;;;;;;11.93;7.23;;;;;;;;;;5027077;28;20815;-82
2020/12/25 07:46:59;;;;;;;12.63;7.67;;;;;;;;;;5025504;28;20652;-83
2020/12/25 07:49:28;;;;;;;11.03;7.00;;;;;;;;;;5017057;28;20280;-82
2020/12/25 07:51:54;;;;;;;12.20;7.27;;;;;;;;;;5016664;28;20265;-83
2020/12/25 07:54:20;;;;;;;12.63;6.77;;;;;;;;;;5015941;28;20653;-82
2020/12/25 07:56:47;;;;;;;12.37;7.40;;;;;;;;;;5017991;28;20273;-82
2020/12/25 07:59:13;;;;;;;11.30;7.13;;;;;;;;;;5012975;28;20285;-82
2020/12/25 08:01:39;;;;;;;13.47;7.53;;;;;;;;;;5029374;28;20286;-82
2020/12/25 08:04:06;;;;;;;13.80;7.77;;;;;;;;;;4996130;28;20269;-81
2020/12/25 08:06:32;;;;;;;11.77;7.17;;;;;;;;;;4995426;28;20270;-83
2020/12/25 08:09:00;;;;;;;14.70;8.50;;;;;;;;;;4995203;28;20270;-82
2020/12/25 08:11:27;;;;;;;13.73;7.57;;;;;;;;;;5002621;28;20257;-81
2020/12/25 08:14:00;;;;;;;13.43;7.87;;;;;;;;;;4998469;28;20320;-81
2020/12/25 08:16:26;;;;;;;14.43;8.47;;;;;;;;;;4994422;28;20776;-81
2020/12/25 08:18:52;;;;;;;14.37;8.43;;;;;;;;;;4998424;28;20265;-80
2020/12/25 08:21:18;;;;;;;14.00;8.27;;;;;;;;;;5013763;28;21210;-80
2020/12/25 08:23:44;;;;;;;34.70;20.00;;;;;;;;;;5014235;28;20256;-80
2020/12/25 08:26:11;;;;;;;17.60;11.17;;;;;;;;;;5014924;28;20269;-81
2020/12/25 08:28:37;;;;;;;13.77;8.53;;;;;;;;;;5013611;28;20299;-81
2020/12/25 08:31:18;;;;;;;14.93;8.97;;;;;;;;;;5014038;28;20265;-81
2020/12/25 08:33:54;;;;;;;18.60;9.77;;;;;;;;;;5014098;28;20375;-81
2020/12/25 08:36:21;;;;;;;19.30;10.50;;;;;;;;;;5005377;28;20351;-80
2020/12/25 08:38:51;;;;;;;23.03;10.33;;;;;;;;;;5005162;28;20676;-80
2020/12/25 08:41:17;;;;;;;19.83;10.07;;;;;;;;;;5012567;28;20300;-80
2020/12/25 08:43:43;;;;;;;15.83;10.40;;;;;;;;;;5013281;28;20265;-79
2020/12/25 08:46:10;;;;;;;15.63;10.50;;;;;;;;;;5011466;28;20285;-79
2020/12/25 08:48:48;;;;;;;13.77;8.67;;;;;;;;;;5012136;28;20340;-79
2020/12/25 08:51:15;;;;;;;14.40;9.23;;;;;;;;;;5010156;28;20305;-78
2020/12/25 08:53:49;;;;;;;15.23;9.70;;;;;;;;;;5008689;28;20335;-78
2020/12/25 08:56:22;;;;;;;13.40;9.23;;;;;;;;;;5005830;28;20289;-78
2020/12/25 08:58:58;;;;;;;13.65;7.90;;;;;;;;;;5007856;28;20269;-79
2020/12/25 09:01:25;;;;;;;11.20;7.00;;;;;;;;;;5017351;28;20026;-79
2020/12/25 09:03:51;;;;;;;15.50;9.60;;;;;;;;;;5010580;28;20281;-78
2020/12/25 09:06:17;;;;;;;14.13;7.97;;;;;;;;;;5011198;28;20259;-80
2020/12/25 09:08:44;;;;;;;15.10;8.57;;;;;;;;;;5009289;28;20379;-80
2020/12/25 09:11:11;;;;;;;12.27;7.37;;;;;;;;;;4991153;28;20285;-80
2020/12/25 09:13:37;;;;;;;13.70;7.40;;;;;;;;;;4991866;28;20265;-78
2020/12/25 09:16:05;;;;;;;16.43;9.80;;;;;;;;;;5017673;28;20281;-79
2020/12/25 09:18:31;;;;;;;19.93;11.70;;;;;;;;;;5013828;28;20280;-79
2020/12/25 09:20:57;;;;;;;10.13;6.30;;;;;;;;;;5001218;28;20292;-79
2020/12/25 09:23:23;;;;;;;9.77;6.10;;;;;;;;;;5008362;28;20763;-79
2020/12/25 09:25:49;;;;;;;10.50;6.47;;;;;;;;;;5008850;28;20257;-79
2020/12/25 09:28:15;;;;;;;10.13;5.63;;;;;;;;;;5009842;28;20288;-78
2020/12/25 09:30:41;;;;;;;13.40;7.07;;;;;;;;;;5009825;28;21155;-78
2020/12/25 09:33:07;;;;;;;12.13;6.40;;;;;;;;;;5009589;28;20327;-79
2020/12/25 09:35:33;;;;;;;9.53;6.07;;;;;;;;;;5008920;28;20289;-79
2020/12/25 09:38:00;;;;;;;11.00;6.30;;;;;;;;;;5004945;28;20274;-79
2020/12/25 09:40:26;;;;;;;17.53;11.67;;;;;;;;;;5022081;28;20273;-79
2020/12/25 09:42:52;;;;;;;21.87;13.43;;;;;;;;;;5021777;28;20280;-80
2020/12/25 09:45:18;;;;;;;18.03;10.30;;;;;;;;;;5018775;28;20866;-79
2020/12/25 09:47:45;;;;;;;15.57;8.93;;;;;;;;;;5023825;28;20322;-79
2020/12/25 09:50:11;;;;;;;13.70;9.33;;;;;;;;;;4988959;28;20088;-79
2020/12/25 09:52:37;;;;;;;13.30;8.33;;;;;;;;;;5054421;28;20030;-79
2020/12/25 09:55:04;;;;;;;10.93;6.90;;;;;;;;;;5009819;28;20037;-79
2020/12/25 09:57:30;;;;;;;12.73;7.30;;;;;;;;;;5014269;28;20269;-80
2020/12/25 09:59:58;;;;;;;12.30;6.90;;;;;;;;;;5009698;28;20269;-80
2020/12/25 10:02:26;;;;;;;10.00;6.27;;;;;;;;;;5006125;28;20351;-80
2020/12/25 10:04:53;;;;;;;10.90;6.87;;;;;;;;;;5005492;28;20048;-82
2020/12/25 10:07:19;;;;;;;12.43;7.23;;;;;;;;;;5007833;28;20272;-80
2020/12/25 10:09:45;;;;;;;10.93;6.70;;;;;;;;;;5001261;28;20281;-80
2020/12/25 10:12:11;;;;;;;11.70;6.40;;;;;;;;;;5006659;28;20272;-80
2020/12/25 10:14:37;;;;;;;10.80;7.00;;;;;;;;;;5005488;28;20367;-80
2020/12/25 10:17:03;;;;;;;11.63;7.30;;;;;;;;;;5011341;28;20348;-80
2020/12/25 10:19:29;;;;;;;12.90;7.33;;;;;;;;;;5012050;28;20257;-78
2020/12/25 10:21:55;;;;;;;15.27;8.97;;;;;;;;;;5010355;28;21239;-80
2020/12/25 10:24:21;;;;;;;19.73;11.57;;;;;;;;;;4998491;28;20261;-80
2020/12/25 10:26:48;;;;;;;13.87;8.33;;;;;;;;;;5005981;28;21002;-80
2020/12/25 10:29:14;;;;;;;16.40;10.07;;;;;;;;;;5022889;28;20261;-80
2020/12/25 10:31:41;;;;;;;18.40;11.20;;;;;;;;;;4992479;28;20262;-79
2020/12/25 10:34:07;;;;;;;20.87;12.07;;;;;;;;;;5007841;28;20269;-80
2020/12/25 10:36:33;;;;;;;20.63;12.47;;;;;;;;;;5025991;28;20272;-78
2020/12/25 10:38:59;;;;;;;24.27;13.17;;;;;;;;;;5028822;28;20356;-80
2020/12/25 10:41:37;;;;;;;19.33;12.23;;;;;;;;;;5015578;28;20372;-79
2020/12/25 10:44:04;;;;;;;22.90;12.93;;;;;;;;;;5023735;28;20350;-80
2020/12/25 10:46:30;;;;;;;18.43;11.13;;;;;;;;;;5028764;28;20299;-79
2020/12/25 10:48:56;;;;;;;14.93;9.13;;;;;;;;;;5027105;28;20268;-79
2020/12/25 10:51:22;;;;;;;18.53;10.63;;;;;;;;;;5005888;28;20309;-79
2020/12/25 10:53:48;;;;;;;16.30;9.33;;;;;;;;;;4994047;28;20338;-79
2020/12/25 10:56:28;;;;;;;18.43;10.80;;;;;;;;;;5008177;28;20303;-80
2020/12/25 10:58:55;;;;;;;15.27;9.57;;;;;;;;;;5007503;28;20281;-78
2020/12/25 11:01:21;;;;;;;14.17;8.73;;;;;;;;;;5006829;28;20261;-79
2020/12/25 11:03:47;;;;;;;11.77;7.80;;;;;;;;;;5007634;28;20276;-78
2020/12/25 11:06:13;;;;;;;12.80;8.40;;;;;;;;;;5007123;28;20261;-79
2020/12/25 11:08:39;;;;;;;10.50;6.70;;;;;;;;;;5007469;28;20292;-79
2020/12/25 11:11:05;;;;;;;13.47;7.97;;;;;;;;;;4991317;28;20273;-78
2020/12/25 11:13:35;;;;;;;11.83;8.20;;;;;;;;;;4989078;28;20360;-79
2020/12/25 11:16:01;;;;;;;13.87;7.43;;;;;;;;;;4987993;28;20293;-77
2020/12/25 11:18:27;;;;;;;11.97;8.00;;;;;;;;;;5012706;28;20265;-78
2020/12/25 11:20:53;;;;;;;14.10;9.10;;;;;;;;;;5010458;28;20257;-78
2020/12/25 11:23:19;;;;;;;15.63;9.83;;;;;;;;;;5009758;28;20260;-78
2020/12/25 11:25:45;;;;;;;14.27;8.20;;;;;;;;;;5009544;28;20347;-78
2020/12/25 11:28:11;;;;;;;14.13;7.33;;;;;;;;;;4993456;28;20281;-78
2020/12/25 11:30:37;;;;;;;12.83;7.63;;;;;;;;;;4992012;28;20352;-78
2020/12/25 11:33:03;;;;;;;18.07;7.87;;;;;;;;;;5007210;28;20646;-78
2020/12/25 11:35:29;;;;;;;11.10;6.50;;;;;;;;;;4993852;28;20376;-78
2020/12/25 11:37:55;;;;;;;10.77;5.90;;;;;;;;;;5009919;28;20268;-78
2020/12/25 11:40:21;;;;;;;13.50;6.83;;;;;;;;;;5010280;28;20268;-77
2020/12/25 11:42:47;;;;;;;11.60;6.73;;;;;;;;;;5011141;28;20956;-78
2020/12/25 11:45:14;;;;;;;10.90;5.80;;;;;;;;;;5011272;28;20283;-77
2020/12/25 11:47:40;;;;;;;10.73;6.07;;;;;;;;;;5011394;28;20770;-78
2020/12/25 11:50:06;;;;;;;10.57;7.00;;;;;;;;;;5010582;28;20283;-78
2020/12/25 11:52:32;;;;;;;11.83;7.33;;;;;;;;;;5006221;28;20278;-78
2020/12/25 11:54:59;;;;;;;10.17;6.63;;;;;;;;;;5005796;28;20285;-79
2020/12/25 11:57:27;;;;;;;10.50;5.90;;;;;;;;;;5026193;28;20806;-77
2020/12/25 11:59:53;;;;;;;10.47;6.27;;;;;;;;;;5010654;28;20779;-78
2020/12/25 12:02:19;;;;;;;9.47;6.20;;;;;;;;;;5009914;28;20700;-78
2020/12/25 12:04:45;;;;;;;10.77;6.70;;;;;;;;;;5010350;28;20268;-76
2020/12/25 12:07:11;;;;;;;13.17;8.40;;;;;;;;;;5010749;28;20269;-78
2020/12/25 12:09:37;;;;;;;14.17;7.57;;;;;;;;;;5009131;28;20649;-78
2020/12/25 12:12:03;;;;;;;10.47;6.20;;;;;;;;;;5010727;28;20320;-77
2020/12/25 12:14:29;;;;;;;10.33;6.60;;;;;;;;;;5003431;28;20277;-79
2020/12/25 12:16:55;;;;;;;14.10;7.17;;;;;;;;;;4991442;28;20297;-79
2020/12/25 12:19:21;;;;;;;12.23;6.80;;;;;;;;;;4991444;28;20261;-77
2020/12/25 12:21:47;;;;;;;12.47;6.63;;;;;;;;;;4990644;28;20265;-79
2020/12/25 12:24:13;;;;;;;12.53;6.70;;;;;;;;;;4995159;28;20322;-78
2020/12/25 12:26:40;;;;;;;11.57;7.37;;;;;;;;;;5008896;28;20300;-78
2020/12/25 12:29:06;;;;;;;11.97;7.27;;;;;;;;;;5009985;28;20695;-81
2020/12/25 12:31:36;;;;;;;17.30;9.50;;;;;;;;;;5010615;28;20257;-78
2020/12/25 12:34:02;;;;;;;20.90;10.50;;;;;;;;;;5009839;28;20697;-78
2020/12/25 12:36:28;;;;;;;15.83;9.23;;;;;;;;;;5008937;28;20292;-78
2020/12/25 12:38:55;;;;;;;13.70;10.10;;;;;;;;;;5009826;28;20272;-78
2020/12/25 12:41:26;;;;;;;12.23;6.53;;;;;;;;;;5009979;28;20260;-78
2020/12/25 12:43:52;;;;;;;10.57;7.10;;;;;;;;;;4992000;28;20281;-78
2020/12/25 12:46:18;;;;;;;11.73;7.10;;;;;;;;;;4990290;28;20254;-80
2020/12/25 12:48:44;;;;;;;17.17;11.03;;;;;;;;;;4991237;28;20269;-81
2020/12/25 12:51:10;;;;;;;12.17;8.53;;;;;;;;;;4991672;28;20319;-82
2020/12/25 12:53:36;;;;;;;12.83;6.83;;;;;;;;;;4994997;28;20277;-79
2020/12/25 12:56:02;;;;;;;15.13;6.13;;;;;;;;;;5009393;28;20288;-79
2020/12/25 12:58:28;;;;;;;11.70;6.60;;;;;;;;;;5009273;28;20257;-79
2020/12/25 13:00:54;;;;;;;13.60;7.23;;;;;;;;;;5002059;28;20281;-79
2020/12/25 13:03:20;;;;;;;12.23;7.23;;;;;;;;;;5009913;28;20269;-81
2020/12/25 13:05:46;;;;;;;18.20;8.50;;;;;;;;;;5009888;28;20763;-80
2020/12/25 13:08:13;;;;;;;13.27;6.30;;;;;;;;;;5009674;28;20287;-78
2020/12/25 13:10:39;;;;;;;11.23;6.33;;;;;;;;;;5003491;28;20391;-77
2020/12/25 13:13:05;;;;;;;9.17;5.60;;;;;;;;;;5006146;28;20265;-78
2020/12/25 13:15:31;;;;;;;9.70;5.60;;;;;;;;;;5006442;28;20297;-78
2020/12/25 13:17:57;;;;;;;12.07;7.23;;;;;;;;;;5006367;28;20356;-79
2020/12/25 13:20:23;;;;;;;13.07;9.50;;;;;;;;;;5000688;28;20751;-78
2020/12/25 13:22:49;;;;;;;11.43;7.13;;;;;;;;;;5008985;28;20273;-78
2020/12/25 13:25:16;;;;;;;11.53;6.37;;;;;;;;;;5003910;28;20272;-78
2020/12/25 13:27:42;;;;;;;11.20;6.70;;;;;;;;;;5009475;28;20273;-78
2020/12/25 13:30:08;;;;;;;10.37;5.90;;;;;;;;;;5009853;28;20265;-78
2020/12/25 13:32:34;;;;;;;13.57;6.13;;;;;;;;;;5009599;28;20277;-77
2020/12/25 13:35:00;;;;;;;10.83;6.60;;;;;;;;;;5009386;28;20285;-78
2020/12/25 13:37:26;;;;;;;11.80;6.40;;;;;;;;;;5009469;28;20283;-78
2020/12/25 13:39:52;;;;;;;11.33;7.37;;;;;;;;;;5009231;28;20327;-78
2020/12/25 13:42:18;;;;;;;15.47;7.70;;;;;;;;;;5010137;28;20253;-78
2020/12/25 13:44:45;;;;;;;15.00;7.33;;;;;;;;;;5010765;28;20261;-78
2020/12/25 13:47:12;;;;;;;11.43;7.10;;;;;;;;;;5002299;28;20340;-77
2020/12/25 13:49:38;;;;;;;14.33;7.53;;;;;;;;;;5009756;28;20721;-78
2020/12/25 13:52:04;;;;;;;11.97;7.93;;;;;;;;;;5011335;28;20273;-78
2020/12/25 13:54:30;;;;;;;12.20;6.40;;;;;;;;;;5005109;28;20277;-77
2020/12/25 13:56:56;;;;;;;11.07;6.63;;;;;;;;;;5011713;28;20251;-78
2020/12/25 13:59:22;;;;;;;12.47;7.50;;;;;;;;;;5012102;28;20261;-77
2020/12/25 14:01:49;;;;;;;15.03;7.63;;;;;;;;;;4998909;28;20351;-78
2020/12/25 14:04:15;;;;;;;16.83;8.43;;;;;;;;;;4992312;28;20421;-77
2020/12/25 14:06:41;;;;;;;17.07;8.73;;;;;;;;;;4992480;28;20269;-77
2020/12/25 14:09:07;;;;;;;15.73;9.27;;;;;;;;;;4991647;28;20823;-78
2020/12/25 14:11:34;;;;;;;17.30;8.97;;;;;;;;;;4991258;28;20296;-78
2020/12/25 14:14:00;;;;;;;16.73;9.43;;;;;;;;;;4993036;28;20268;-80
2020/12/25 14:16:27;;;;;;;12.67;8.00;;;;;;;;;;4992449;28;20297;-78
2020/12/25 14:18:53;;;;;;;12.93;7.27;;;;;;;;;;4992570;28;20262;-78
2020/12/25 14:21:19;;;;;;;13.80;7.83;;;;;;;;;;4987862;28;20281;-78
2020/12/25 14:23:45;;;;;;;14.30;8.03;;;;;;;;;;4991649;28;20343;-79
2020/12/25 14:26:12;;;;;;;12.97;7.27;;;;;;;;;;5007236;28;20268;-78
2020/12/25 14:28:39;;;;;;;13.07;8.73;;;;;;;;;;5003990;28;20792;-78
2020/12/25 14:31:05;;;;;;;13.00;7.93;;;;;;;;;;5020677;28;20819;-78
2020/12/25 14:33:31;;;;;;;14.47;7.53;;;;;;;;;;5020952;28;20384;-78